createdAt,value
2022-10-17T00:00:56.742Z,17.00
2022-10-17T00:04:00.004Z,16.60
2022-10-17T00:07:03.166Z,16.75
2022-10-17T00:10:07.632Z,13.00
2022-10-17T00:13:11.407Z,13.20
2022-10-17T00:16:16.142Z,17.00
2022-10-17T00:19:19.379Z,12.80
2022-10-17T00:22:22.665Z,15.00
2022-10-17T00:25:25.835Z,15.00
2022-10-17T00:28:29.496Z,14.00
2022-10-17T00:31:35.759Z,13.00
2022-10-17T00:34:39.037Z,13.00
2022-10-17T00:37:42.743Z,13.00
2022-10-17T00:40:47.118Z,14.00
2022-10-17T00:43:54.365Z,13.00
2022-10-17T00:46:59.839Z,12.60
2022-10-17T00:50:04.331Z,14.00
2022-10-17T00:53:09.417Z,16.60
2022-10-17T00:56:13.444Z,16.00
2022-10-17T00:59:18.245Z,16.00
2022-10-17T01:02:23.811Z,14.40
2022-10-17T01:05:28.374Z,14.00
2022-10-17T01:08:32.159Z,14.00
2022-10-17T01:11:46.797Z,14.40
2022-10-17T01:15:01.871Z,16.00
2022-10-17T01:18:19.636Z,16.60
2022-10-17T01:21:31.615Z,16.00
2022-10-17T01:25:05.909Z,16.00
2022-10-17T01:28:26.939Z,16.00
2022-10-17T01:31:40.154Z,15.60
2022-10-17T01:34:48.118Z,14.75
2022-10-17T01:38:00.347Z,16.60
2022-10-17T01:41:08.795Z,15.00
2022-10-17T01:44:19.138Z,15.60
2022-10-17T01:47:27.981Z,14.20
2022-10-17T01:50:36.706Z,17.00
2022-10-17T01:53:46.386Z,14.75
2022-10-17T01:56:56.163Z,15.00
2022-10-17T01:59:59.562Z,16.00
2022-10-17T02:03:08.701Z,13.00
2022-10-17T02:06:13.633Z,14.60
2022-10-17T02:09:23.643Z,13.80
2022-10-17T02:12:39.392Z,16.00
2022-10-17T02:15:54.701Z,14.00
2022-10-17T02:19:15.436Z,14.00
2022-10-17T02:22:31.235Z,15.00
2022-10-17T02:25:42.689Z,12.00
2022-10-17T02:28:54.533Z,15.00
2022-10-17T02:32:05.022Z,16.75
2022-10-17T02:35:15.377Z,14.00
2022-10-17T02:38:20.255Z,13.00
2022-10-17T02:41:25.880Z,12.80
2022-10-17T02:44:32.506Z,14.75
2022-10-17T02:47:42.547Z,13.00
2022-10-17T02:50:55.155Z,13.60
2022-10-17T02:54:07.202Z,16.00
2022-10-17T02:57:20.128Z,14.60
2022-10-17T03:00:27.122Z,15.00
2022-10-17T03:03:33.004Z,14.00
2022-10-17T03:06:40.010Z,17.00
2022-10-17T03:09:44.024Z,15.00
2022-10-17T03:12:47.396Z,15.20
2022-10-17T03:15:50.722Z,16.20
2022-10-17T03:18:54.066Z,15.00
2022-10-17T03:21:58.736Z,16.40
2022-10-17T03:25:02.011Z,17.00
2022-10-17T03:28:05.637Z,16.00
2022-10-17T03:31:11.195Z,14.00
2022-10-17T03:34:17.116Z,17.00
2022-10-17T03:37:22.067Z,16.00
2022-10-17T03:40:26.580Z,15.00
2022-10-17T03:43:30.600Z,13.75
2022-10-17T03:46:34.810Z,15.00
2022-10-17T03:49:38.235Z,16.00
2022-10-17T03:52:43.345Z,17.75
2022-10-17T03:55:46.562Z,17.80
2022-10-17T03:58:50.003Z,16.00
2022-10-17T04:01:53.605Z,18.00
2022-10-17T04:04:57.901Z,19.00
2022-10-17T04:08:04.782Z,18.75
2022-10-17T04:11:26.984Z,15.00
2022-10-17T04:14:34.815Z,20.25
2022-10-17T04:17:38.849Z,16.40
2022-10-17T04:20:43.274Z,18.00
2022-10-17T04:23:47.983Z,15.40
2022-10-17T04:27:05.441Z,17.80
2022-10-17T04:30:12.801Z,16.00
2022-10-17T04:33:16.151Z,18.80
2022-10-17T04:36:23.037Z,19.00
2022-10-17T04:39:27.871Z,16.20
2022-10-17T04:42:32.269Z,15.60
2022-10-17T04:45:36.397Z,18.50
2022-10-17T04:48:42.047Z,18.00
2022-10-17T04:51:46.624Z,20.67
2022-10-17T04:55:04.230Z,21.00
2022-10-17T04:58:07.499Z,20.40
2022-10-17T05:01:13.555Z,19.80
2022-10-17T05:04:21.098Z,24.00
2022-10-17T05:07:27.217Z,20.20
2022-10-17T05:10:47.279Z,20.50
2022-10-17T05:13:55.468Z,20.80
2022-10-17T05:16:58.895Z,21.00
2022-10-17T05:20:02.496Z,21.50
2022-10-17T05:23:07.711Z,23.60
2022-10-17T05:26:17.808Z,21.60
2022-10-17T05:29:21.051Z,24.50
2022-10-17T05:32:29.516Z,21.40
2022-10-17T05:35:32.994Z,20.20
2022-10-17T05:38:36.461Z,21.00
2022-10-17T05:41:41.498Z,23.33
2022-10-17T05:44:44.822Z,25.00
2022-10-17T05:47:49.594Z,24.40
2022-10-17T05:50:59.942Z,21.40
2022-10-17T05:54:03.582Z,22.40
2022-10-17T05:57:08.552Z,23.00
2022-10-17T06:00:14.154Z,23.40
2022-10-17T06:03:17.423Z,27.40
2022-10-17T06:06:21.364Z,26.00
2022-10-17T06:09:25.409Z,25.60
2022-10-17T06:12:32.445Z,27.00
2022-10-17T06:15:36.240Z,29.00
2022-10-17T06:18:43.299Z,29.00
2022-10-17T06:21:47.547Z,34.00
2022-10-17T06:24:56.308Z,33.00
2022-10-17T06:28:01.821Z,36.00
2022-10-17T06:31:07.351Z,32.00
2022-10-17T06:34:10.612Z,31.00
2022-10-17T06:37:15.574Z,33.00
2022-10-17T06:40:20.119Z,32.00
2022-10-17T06:43:27.982Z,32.00
2022-10-17T06:47:03.959Z,33.00
2022-10-17T06:50:09.736Z,26.00
2022-10-17T06:53:25.163Z,30.00
2022-10-17T06:56:46.804Z,29.20
2022-10-17T07:00:08.030Z,29.00
2022-10-17T07:03:17.559Z,28.00
2022-10-17T07:06:20.930Z,29.00
2022-10-17T07:09:25.146Z,29.00
2022-10-17T07:12:28.667Z,28.80
2022-10-17T07:15:33.424Z,29.00
2022-10-17T07:18:37.048Z,30.00
2022-10-17T07:21:40.483Z,27.40
2022-10-17T07:24:46.725Z,27.00
2022-10-17T07:27:59.993Z,25.80
2022-10-17T07:31:10.760Z,26.00
2022-10-17T07:34:14.092Z,25.60
2022-10-17T07:37:17.986Z,25.00
2022-10-17T07:40:28.141Z,22.00
2022-10-17T07:43:32.473Z,24.00
2022-10-17T07:46:38.342Z,22.60
2022-10-17T07:49:44.130Z,23.00
2022-10-17T07:52:47.387Z,20.00
2022-10-17T07:55:51.493Z,21.00
2022-10-17T07:58:54.940Z,18.80
2022-10-17T08:02:00.593Z,18.60
2022-10-17T08:05:04.308Z,21.00
2022-10-17T08:08:07.691Z,17.60
2022-10-17T08:11:15.197Z,16.00
2022-10-17T08:14:18.568Z,12.00
2022-10-17T08:17:23.210Z,13.20
2022-10-17T08:20:26.508Z,12.00
2022-10-17T08:23:30.683Z,10.20
2022-10-17T08:26:33.989Z,12.00
2022-10-17T08:29:37.216Z,13.00
2022-10-17T08:32:42.331Z,22.00
2022-10-17T08:35:46.013Z,23.50
2022-10-17T08:38:52.797Z,19.50
2022-10-17T08:42:10.854Z,22.00
2022-10-17T08:45:22.156Z,21.40
2022-10-17T08:48:29.661Z,23.00
2022-10-17T08:51:38.414Z,20.40
2022-10-17T08:54:46.103Z,19.00
2022-10-17T08:57:49.789Z,22.00
2022-10-17T09:01:03.447Z,20.75
2022-10-17T09:04:35.863Z,19.40
2022-10-17T09:07:46.175Z,17.60
2022-10-17T09:10:57.377Z,19.25
2022-10-17T09:14:16.114Z,21.00
2022-10-17T09:17:30.649Z,19.40
2022-10-17T09:20:39.337Z,18.00
2022-10-17T09:23:48.197Z,17.00
2022-10-17T09:26:52.484Z,19.00
2022-10-17T09:30:26.886Z,16.00
2022-10-17T09:33:53.934Z,17.20
2022-10-17T09:37:00.103Z,16.60
2022-10-17T09:40:03.382Z,16.00
2022-10-17T09:43:08.895Z,16.00
2022-10-17T09:46:18.681Z,13.00
2022-10-17T09:49:30.884Z,15.00
2022-10-17T09:52:42.121Z,17.00
2022-10-17T09:55:49.021Z,16.00
2022-10-17T09:58:57.959Z,13.50
2022-10-17T10:02:20.255Z,13.00
2022-10-17T10:05:23.584Z,12.40
2022-10-17T10:08:31.577Z,11.00
2022-10-17T10:11:50.474Z,9.20
2022-10-17T10:14:55.394Z,10.00
2022-10-17T10:17:58.814Z,10.00
2022-10-17T10:21:09.617Z,8.00
2022-10-17T10:24:15.319Z,9.00
2022-10-17T10:27:20.201Z,8.80
2022-10-17T10:30:26.837Z,10.00
2022-10-17T10:33:32.072Z,9.00
2022-10-17T10:36:53.039Z,10.00
2022-10-17T10:39:59.998Z,10.00
2022-10-17T10:43:05.623Z,9.00
2022-10-17T10:46:20.477Z,9.00
2022-10-17T10:49:32.146Z,8.00
2022-10-17T10:52:44.869Z,8.00
2022-10-17T10:56:07.784Z,8.60
2022-10-17T10:59:19.486Z,9.25
2022-10-17T11:02:28.907Z,9.00
2022-10-17T11:05:41.476Z,8.00
2022-10-17T11:08:50.319Z,9.00
2022-10-17T11:12:01.192Z,9.00
2022-10-17T11:15:15.651Z,9.00
2022-10-17T11:18:26.106Z,9.60
2022-10-17T11:24:57.240Z,10.00
2022-10-17T11:28:05.104Z,8.50
2022-10-17T11:31:12.876Z,8.00
2022-10-17T11:34:20.267Z,9.00
2022-10-17T11:37:29.933Z,9.00
2022-10-17T11:40:37.577Z,8.00
2022-10-17T11:43:50.308Z,8.00
2022-10-17T11:47:00.158Z,10.00
2022-10-17T11:53:47.968Z,8.00
2022-10-17T11:57:04.014Z,10.75
2022-10-17T12:00:26.571Z,8.00
2022-10-17T12:03:49.731Z,8.00
2022-10-17T12:07:13.492Z,9.00
2022-10-17T12:10:31.950Z,8.00
2022-10-17T12:13:56.455Z,9.00
2022-10-17T12:17:01.691Z,11.00
2022-10-17T12:20:28.961Z,10.00
2022-10-17T12:23:33.358Z,9.40
2022-10-17T12:26:36.650Z,8.75
2022-10-17T12:29:40.063Z,9.00
2022-10-17T12:33:07.098Z,10.00
2022-10-17T12:36:39.086Z,9.00
2022-10-17T12:39:44.076Z,10.20
2022-10-17T12:42:50.485Z,9.00
2022-10-17T12:45:55.334Z,10.00
2022-10-17T12:49:21.263Z,10.20
2022-10-17T12:52:27.100Z,11.40
2022-10-17T12:55:30.600Z,11.00
2022-10-17T12:58:36.289Z,12.00
2022-10-17T13:01:41.175Z,9.20
2022-10-17T13:04:46.463Z,9.80
2022-10-17T13:07:50.821Z,11.00
2022-10-17T13:10:56.363Z,11.00
2022-10-17T13:14:03.423Z,9.40
2022-10-17T13:17:09.001Z,11.00
2022-10-17T13:20:27.483Z,10.00
2022-10-17T13:23:36.628Z,13.00
2022-10-17T13:26:46.718Z,10.00
2022-10-17T13:29:50.165Z,11.25
2022-10-17T13:32:53.625Z,9.00
2022-10-17T13:36:01.084Z,10.00
2022-10-17T13:39:12.401Z,10.60
2022-10-17T13:42:24.002Z,10.00
2022-10-17T13:45:31.401Z,10.25
2022-10-17T13:48:37.865Z,9.00
2022-10-17T13:51:46.480Z,11.00
2022-10-17T13:54:52.193Z,10.00
2022-10-17T13:57:55.465Z,10.00
2022-10-17T14:00:59.613Z,10.40
2022-10-17T14:04:09.488Z,11.00
2022-10-17T14:07:34.235Z,9.00
2022-10-17T14:10:43.495Z,11.00
2022-10-17T14:13:50.033Z,10.00
2022-10-17T14:16:53.623Z,12.00
2022-10-17T14:20:34.452Z,10.60
2022-10-17T14:23:37.965Z,11.20
2022-10-17T14:26:49.166Z,11.50
2022-10-17T14:29:54.038Z,11.00
2022-10-17T14:32:59.280Z,11.00
2022-10-17T14:36:03.829Z,10.00
2022-10-17T14:39:17.638Z,12.00
2022-10-17T14:42:22.039Z,11.00
2022-10-17T14:45:29.095Z,10.00
2022-10-17T14:48:33.332Z,10.00
2022-10-17T14:51:50.266Z,11.80
2022-10-17T14:55:21.950Z,9.60
2022-10-17T14:58:28.845Z,13.00
2022-10-17T15:01:32.136Z,11.80
2022-10-17T15:04:35.378Z,11.20
2022-10-17T15:07:38.598Z,10.40
2022-10-17T15:10:44.723Z,12.00
2022-10-17T15:13:48.049Z,12.75
2022-10-17T15:16:51.545Z,12.00
2022-10-17T15:19:55.481Z,12.00
2022-10-17T15:23:01.229Z,12.40
2022-10-17T15:26:15.193Z,12.75
2022-10-17T15:29:18.395Z,13.00
2022-10-17T15:32:21.761Z,13.00
2022-10-17T15:35:26.147Z,13.00
2022-10-17T15:38:29.402Z,15.00
2022-10-17T15:41:34.639Z,14.60
2022-10-17T15:44:37.886Z,13.60
2022-10-17T15:47:42.777Z,14.00
2022-10-17T15:50:45.989Z,12.00
2022-10-17T15:53:49.250Z,14.60
2022-10-17T15:56:56.369Z,13.60
2022-10-17T16:00:01.403Z,13.00
2022-10-17T16:03:05.226Z,15.00
2022-10-17T16:06:10.809Z,15.40
2022-10-17T16:09:16.797Z,13.25
2022-10-17T16:12:28.313Z,11.20
2022-10-17T16:15:33.126Z,14.00
2022-10-17T16:18:36.322Z,15.00
2022-10-17T16:21:42.111Z,13.33
2022-10-17T16:24:45.464Z,13.00
2022-10-17T16:27:52.258Z,11.20
2022-10-17T16:30:56.261Z,12.00
2022-10-17T16:34:01.730Z,12.00
2022-10-17T16:37:05.862Z,13.20
2022-10-17T16:40:10.018Z,15.00
2022-10-17T16:43:15.136Z,11.20
2022-10-17T16:46:19.130Z,12.00
2022-10-17T16:49:22.388Z,11.60
2022-10-17T16:52:25.729Z,12.00
2022-10-17T16:55:29.019Z,10.50
2022-10-17T16:58:33.740Z,11.00
2022-10-17T17:01:38.163Z,12.00
2022-10-17T17:04:41.425Z,13.00
2022-10-17T17:07:44.737Z,13.00
2022-10-17T17:10:49.882Z,13.00
2022-10-17T17:13:56.692Z,13.60
2022-10-17T17:16:59.978Z,12.25
2022-10-17T17:20:03.513Z,12.00
2022-10-17T17:23:07.168Z,11.00
2022-10-17T17:26:12.515Z,13.00
2022-10-17T17:29:17.398Z,12.00
2022-10-17T17:32:20.763Z,12.50
2022-10-17T17:35:24.094Z,14.40
2022-10-17T17:38:29.831Z,14.00
2022-10-17T17:41:33.667Z,13.80
2022-10-17T17:44:38.303Z,13.00
2022-10-17T17:47:41.592Z,12.00
2022-10-17T17:50:45.656Z,11.25
2022-10-17T17:53:49.595Z,11.60
2022-10-17T17:56:52.832Z,10.00
2022-10-17T17:59:57.435Z,11.00
2022-10-17T18:03:00.736Z,13.20
2022-10-17T18:06:06.229Z,11.80
2022-10-17T18:09:10.275Z,11.50
2022-10-17T18:12:13.499Z,13.00
2022-10-17T18:15:18.580Z,12.00
2022-10-17T18:18:21.887Z,12.40
2022-10-17T18:21:25.443Z,10.40
2022-10-17T18:24:28.671Z,11.20
2022-10-17T18:27:31.904Z,12.00
2022-10-17T18:30:39.399Z,11.00
2022-10-17T18:33:45.068Z,11.40
2022-10-17T18:36:48.869Z,12.00
2022-10-17T18:39:54.219Z,13.00
2022-10-17T18:42:57.695Z,13.40
2022-10-17T18:46:08.583Z,11.00
2022-10-17T18:49:18.925Z,13.00
2022-10-17T18:52:22.147Z,12.00
2022-10-17T18:55:25.412Z,12.40
2022-10-17T18:58:28.705Z,13.00
2022-10-17T19:01:33.445Z,13.60
2022-10-17T19:04:36.880Z,12.00
2022-10-17T19:07:40.179Z,12.00
2022-10-17T19:10:44.357Z,14.00
2022-10-17T19:13:49.066Z,14.00
2022-10-17T19:16:53.735Z,15.00
2022-10-17T19:19:56.966Z,13.00
2022-10-17T19:23:00.399Z,13.60
2022-10-17T19:26:04.469Z,14.00
2022-10-17T19:29:08.517Z,11.00
2022-10-17T19:32:16.680Z,11.00
2022-10-17T19:35:22.470Z,13.60
2022-10-17T19:38:25.946Z,11.75
2022-10-17T19:41:29.441Z,11.80
2022-10-17T19:44:33.073Z,13.00
2022-10-17T19:47:38.761Z,14.00
2022-10-17T19:50:45.244Z,12.00
2022-10-17T19:53:48.803Z,11.60
2022-10-17T19:56:52.015Z,13.00
2022-10-17T19:59:56.272Z,11.00
2022-10-17T20:03:01.160Z,13.60
2022-10-17T20:06:04.852Z,13.00
2022-10-17T20:09:11.188Z,15.00
2022-10-17T20:12:17.509Z,13.40
2022-10-17T20:15:27.357Z,15.00
2022-10-17T20:18:32.007Z,13.00
2022-10-17T20:21:36.771Z,18.00
2022-10-17T20:24:40.067Z,13.00
2022-10-17T20:27:43.721Z,11.50
2022-10-17T20:30:48.013Z,14.00
2022-10-17T20:33:57.569Z,13.00
2022-10-17T20:37:01.268Z,15.40
2022-10-17T20:40:33.085Z,15.00
2022-10-17T20:43:28.289Z,13.40
2022-10-17T20:46:44.706Z,15.00
2022-10-17T20:49:56.689Z,14.00
2022-10-17T20:53:24.509Z,15.00
2022-10-17T20:56:24.904Z,14.40
2022-10-17T20:59:29.028Z,14.00
2022-10-17T21:02:34.024Z,15.60
2022-10-17T21:05:40.996Z,16.50
2022-10-17T21:08:44.523Z,13.80
2022-10-17T21:11:48.421Z,15.00
2022-10-17T21:14:51.791Z,13.60
2022-10-17T21:17:55.117Z,13.60
2022-10-17T21:21:08.850Z,14.20
2022-10-17T21:24:14.387Z,14.40
2022-10-17T21:27:19.435Z,12.00
2022-10-17T21:30:22.780Z,12.80
2022-10-17T21:33:26.015Z,17.00
2022-10-17T21:36:30.620Z,14.00
2022-10-17T21:39:33.823Z,13.80
2022-10-17T21:42:37.112Z,15.25
2022-10-17T21:45:41.155Z,17.00
2022-10-17T21:48:45.421Z,13.00
2022-10-17T21:51:50.947Z,15.00
2022-10-17T21:54:54.155Z,15.00
2022-10-17T21:57:57.450Z,16.00
2022-10-17T22:01:05.849Z,15.60
2022-10-17T22:04:11.754Z,15.20
2022-10-17T22:07:16.351Z,15.80
2022-10-17T22:10:19.633Z,15.60
2022-10-17T22:13:22.936Z,16.00
2022-10-17T22:16:26.773Z,18.00
2022-10-17T22:19:30.016Z,16.60
2022-10-17T22:22:34.725Z,16.00
2022-10-17T22:25:38.004Z,15.00
2022-10-17T22:28:42.441Z,16.00
2022-10-17T22:31:45.943Z,16.00
2022-10-17T22:34:49.423Z,13.80
2022-10-17T22:37:54.050Z,13.75
2022-10-17T22:40:57.326Z,14.00
2022-10-17T22:44:00.585Z,15.00
2022-10-17T22:47:03.797Z,15.00
2022-10-17T22:50:07.404Z,12.20
2022-10-17T22:53:12.312Z,12.40
2022-10-17T22:56:17.355Z,14.00
2022-10-17T22:59:20.880Z,11.60
2022-10-17T23:02:24.502Z,14.00
2022-10-17T23:05:27.825Z,15.20
2022-10-17T23:08:33.310Z,16.00
2022-10-17T23:11:36.606Z,16.75
2022-10-17T23:14:43.284Z,17.00
2022-10-17T23:17:46.850Z,18.00
2022-10-17T23:20:50.624Z,17.00
2022-10-17T23:23:55.182Z,18.40
2022-10-17T23:26:58.470Z,19.00
2022-10-17T23:30:01.821Z,17.00
2022-10-17T23:33:05.694Z,16.00
2022-10-17T23:36:10.399Z,17.00
2022-10-17T23:39:15.242Z,17.20
2022-10-17T23:42:18.506Z,16.00
2022-10-17T23:45:21.946Z,15.20
2022-10-17T23:48:25.483Z,17.00
2022-10-17T23:51:28.733Z,19.00
2022-10-17T23:54:33.665Z,19.00
2022-10-17T23:57:36.881Z,19.00
